createdAt,value
2019-03-23T00:00:08.847Z,10.75
2019-03-23T00:02:38.028Z,10.80
2019-03-23T00:05:08.370Z,10.79
2019-03-23T00:07:37.701Z,10.90
2019-03-23T00:10:25.070Z,10.88
2019-03-23T00:13:12.052Z,10.84
2019-03-23T00:15:41.209Z,10.84
2019-03-23T00:18:10.404Z,10.88
2019-03-23T00:20:39.606Z,10.91
2019-03-23T00:23:08.886Z,10.92
2019-03-23T00:25:38.096Z,10.94
2019-03-23T00:28:07.276Z,10.92
2019-03-23T00:30:36.474Z,10.97
2019-03-23T00:33:05.740Z,10.97
2019-03-23T00:35:34.941Z,11.00
2019-03-23T00:38:04.234Z,10.98
2019-03-23T00:40:33.431Z,11.00
2019-03-23T00:43:02.686Z,10.82
2019-03-23T00:45:33.541Z,10.86
2019-03-23T00:48:02.717Z,10.80
2019-03-23T00:50:31.928Z,10.82
2019-03-23T00:53:01.112Z,10.91
2019-03-23T00:55:30.368Z,10.97
2019-03-23T00:57:59.562Z,10.90
2019-03-23T01:00:28.745Z,10.85
2019-03-23T01:02:58.006Z,10.87
2019-03-23T01:05:27.200Z,10.81
2019-03-23T01:07:56.403Z,10.92
2019-03-23T01:10:25.603Z,10.75
2019-03-23T01:12:54.794Z,10.89
2019-03-23T01:15:24.008Z,10.92
2019-03-23T01:17:53.189Z,10.94
2019-03-23T01:20:22.387Z,10.71
2019-03-23T01:22:51.644Z,10.79
2019-03-23T01:25:20.980Z,10.79
2019-03-23T01:27:50.118Z,10.90
2019-03-23T01:30:19.392Z,10.97
2019-03-23T01:32:48.579Z,10.95
2019-03-23T01:35:17.778Z,10.97
2019-03-23T01:37:46.984Z,10.97
2019-03-23T01:40:16.157Z,11.01
2019-03-23T01:42:45.344Z,11.08
2019-03-23T01:45:14.798Z,11.08
2019-03-23T01:47:44.002Z,11.11
2019-03-23T01:50:13.742Z,11.00
2019-03-23T01:52:42.958Z,11.15
2019-03-23T01:55:12.912Z,11.17
2019-03-23T01:57:42.091Z,11.13
2019-03-23T02:00:13.451Z,11.08
2019-03-23T02:02:42.642Z,11.07
2019-03-23T02:05:11.932Z,11.06
2019-03-23T02:07:41.161Z,11.18
2019-03-23T02:10:11.971Z,11.16
2019-03-23T02:12:41.162Z,11.09
2019-03-23T02:15:13.630Z,11.10
2019-03-23T02:17:42.812Z,11.12
2019-03-23T02:20:13.046Z,10.80
2019-03-23T02:22:42.263Z,10.82
2019-03-23T02:25:11.635Z,10.88
2019-03-23T02:27:40.834Z,10.67
2019-03-23T02:30:11.371Z,10.77
2019-03-23T02:32:40.701Z,10.66
2019-03-23T02:35:10.624Z,10.46
2019-03-23T02:37:39.846Z,10.38
2019-03-23T02:40:10.390Z,10.45
2019-03-23T02:42:39.589Z,10.44
2019-03-23T02:45:10.920Z,10.52
2019-03-23T02:47:40.123Z,10.56
2019-03-23T02:50:10.454Z,10.59
2019-03-23T02:52:39.659Z,10.64
2019-03-23T02:55:10.056Z,10.38
2019-03-23T02:57:39.361Z,10.23
2019-03-23T03:00:12.203Z,10.15
2019-03-23T03:02:41.478Z,10.18
2019-03-23T03:05:11.304Z,10.03
2019-03-23T03:07:43.275Z,10.10
2019-03-23T03:10:14.493Z,10.17
2019-03-23T03:12:43.668Z,9.89
2019-03-23T03:15:12.995Z,9.89
2019-03-23T03:17:42.203Z,9.78
2019-03-23T03:20:11.536Z,9.78
2019-03-23T03:22:40.718Z,9.97
2019-03-23T03:25:10.114Z,9.97
2019-03-23T03:27:39.319Z,10.11
2019-03-23T03:30:11.163Z,10.08
2019-03-23T03:32:40.407Z,10.08
2019-03-23T03:35:10.027Z,10.17
2019-03-23T03:37:39.223Z,10.23
2019-03-23T03:40:09.252Z,10.23
2019-03-23T03:42:38.473Z,10.18
2019-03-23T03:45:09.820Z,10.23
2019-03-23T03:47:41.179Z,10.29
2019-03-23T03:50:11.035Z,10.31
2019-03-23T03:52:40.218Z,10.34
2019-03-23T03:55:09.876Z,10.41
2019-03-23T03:57:39.065Z,10.41
2019-03-23T04:00:09.693Z,10.44
2019-03-23T04:02:38.879Z,10.49
2019-03-23T04:05:09.101Z,10.49
2019-03-23T04:07:38.312Z,10.49
2019-03-23T04:10:08.405Z,10.55
2019-03-23T04:12:37.531Z,10.59
2019-03-23T04:15:08.673Z,10.68
2019-03-23T04:17:37.856Z,10.67
2019-03-23T04:20:08.283Z,10.70
2019-03-23T04:22:37.478Z,10.69
2019-03-23T04:25:10.777Z,10.65
2019-03-23T04:27:39.977Z,10.64
2019-03-23T04:30:11.339Z,10.67
2019-03-23T04:32:40.541Z,10.68
2019-03-23T04:35:10.156Z,10.57
2019-03-23T04:37:39.413Z,10.63
2019-03-23T04:40:11.008Z,10.55
2019-03-23T04:42:40.292Z,10.67
2019-03-23T04:45:10.906Z,10.67
2019-03-23T04:47:40.113Z,10.66
2019-03-23T04:50:11.054Z,10.72
2019-03-23T04:52:40.246Z,10.75
2019-03-23T04:55:13.183Z,10.68
2019-03-23T04:57:42.434Z,10.83
2019-03-23T05:00:17.432Z,10.80
2019-03-23T05:02:46.607Z,10.70
2019-03-23T05:05:15.865Z,10.73
2019-03-23T05:07:45.083Z,10.80
2019-03-23T05:10:14.398Z,10.76
2019-03-23T05:12:43.588Z,10.83
2019-03-23T05:15:12.926Z,10.87
2019-03-23T05:17:42.129Z,10.80
2019-03-23T05:20:15.210Z,10.69
2019-03-23T05:22:44.397Z,10.71
2019-03-23T05:25:25.448Z,10.62
2019-03-23T05:27:54.707Z,10.76
2019-03-23T05:30:23.908Z,10.76
2019-03-23T05:32:53.549Z,10.77
2019-03-23T05:35:22.760Z,10.90
2019-03-23T05:37:51.951Z,10.87
2019-03-23T05:40:21.155Z,10.88
2019-03-23T05:42:50.341Z,10.75
2019-03-23T05:45:19.533Z,10.82
2019-03-23T05:47:48.728Z,10.80
2019-03-23T05:50:17.907Z,10.83
2019-03-23T05:52:47.127Z,10.88
2019-03-23T05:55:16.292Z,10.84
2019-03-23T05:57:45.488Z,10.91
2019-03-23T06:00:16.389Z,10.88
2019-03-23T06:02:45.568Z,10.91
2019-03-23T06:05:14.843Z,11.02
2019-03-23T06:07:43.985Z,11.02
2019-03-23T06:10:13.357Z,10.94
2019-03-23T06:12:42.579Z,10.89
2019-03-23T06:15:11.926Z,11.02
2019-03-23T06:17:41.139Z,11.02
2019-03-23T06:20:10.673Z,11.02
2019-03-23T06:22:39.948Z,11.04
2019-03-23T06:25:09.390Z,11.03
2019-03-23T06:27:38.581Z,11.08
2019-03-23T06:30:10.661Z,10.91
2019-03-23T06:32:39.841Z,10.90
2019-03-23T06:35:09.310Z,10.94
2019-03-23T06:37:38.613Z,11.08
2019-03-23T06:40:10.062Z,11.11
2019-03-23T06:42:39.366Z,11.13
2019-03-23T06:45:11.221Z,11.15
2019-03-23T06:47:40.402Z,11.13
2019-03-23T06:50:11.327Z,11.11
2019-03-23T06:52:40.581Z,11.18
2019-03-23T06:55:10.479Z,11.09
2019-03-23T06:57:39.745Z,11.20
2019-03-23T07:00:14.644Z,11.13
2019-03-23T07:02:43.908Z,11.14
2019-03-23T07:05:14.045Z,11.19
2019-03-23T07:07:43.350Z,11.08
2019-03-23T07:10:13.813Z,11.10
2019-03-23T07:12:43.065Z,11.16
2019-03-23T07:15:19.780Z,11.15
2019-03-23T07:17:43.592Z,11.13
2019-03-23T07:20:14.616Z,11.11
2019-03-23T07:22:43.796Z,11.10
2019-03-23T07:25:13.205Z,11.26
2019-03-23T07:27:42.455Z,11.15
2019-03-23T07:30:14.658Z,11.16
2019-03-23T07:32:43.848Z,11.30
2019-03-23T07:35:14.188Z,11.24
2019-03-23T07:37:43.394Z,11.24
2019-03-23T07:40:13.542Z,11.28
2019-03-23T07:42:43.057Z,11.21
2019-03-23T07:45:14.038Z,11.30
2019-03-23T07:47:43.303Z,11.29
2019-03-23T07:50:13.857Z,11.25
2019-03-23T07:52:45.205Z,11.17
2019-03-23T07:55:16.405Z,11.14
2019-03-23T07:57:45.779Z,11.21
2019-03-23T08:00:21.541Z,11.24
2019-03-23T08:02:51.087Z,11.26
2019-03-23T08:05:20.288Z,11.11
2019-03-23T08:07:51.058Z,11.04
2019-03-23T08:10:31.301Z,11.13
2019-03-23T08:13:00.620Z,11.13
2019-03-23T08:15:30.286Z,11.22
2019-03-23T08:17:59.466Z,11.30
2019-03-23T08:20:28.808Z,11.11
2019-03-23T08:22:58.004Z,11.22
2019-03-23T08:25:27.285Z,11.23
2019-03-23T08:27:56.516Z,11.24
2019-03-23T08:30:25.784Z,11.36
2019-03-23T08:32:54.980Z,11.23
2019-03-23T08:35:24.205Z,11.28
2019-03-23T08:37:53.365Z,11.32
2019-03-23T08:40:22.567Z,11.15
2019-03-23T08:42:51.769Z,11.21
2019-03-23T08:45:20.967Z,11.41
2019-03-23T08:47:50.165Z,11.42
2019-03-23T08:50:19.363Z,11.46
2019-03-23T08:52:48.555Z,11.44
2019-03-23T08:55:17.785Z,11.41
2019-03-23T08:57:46.975Z,11.58
2019-03-23T09:00:16.240Z,11.64
2019-03-23T09:02:45.377Z,11.56
2019-03-23T09:05:14.670Z,11.58
2019-03-23T09:07:43.885Z,11.75
2019-03-23T09:10:13.175Z,11.82
2019-03-23T09:12:42.749Z,11.95
2019-03-23T09:15:12.101Z,11.97
2019-03-23T09:17:41.272Z,11.95
2019-03-23T09:20:11.731Z,11.96
2019-03-23T09:22:41.038Z,11.87
2019-03-23T09:25:10.351Z,11.86
2019-03-23T09:27:39.544Z,11.96
2019-03-23T09:30:10.974Z,11.99
2019-03-23T09:32:40.163Z,12.01
2019-03-23T09:35:09.649Z,12.01
2019-03-23T09:37:38.831Z,11.77
2019-03-23T09:40:11.069Z,11.99
2019-03-23T09:42:40.339Z,12.02
2019-03-23T09:45:09.855Z,12.02
2019-03-23T09:47:39.068Z,11.80
2019-03-23T09:50:10.100Z,11.81
2019-03-23T09:52:39.322Z,11.82
2019-03-23T09:55:08.651Z,11.84
2019-03-23T09:57:37.842Z,11.95
2019-03-23T10:00:09.191Z,11.95
2019-03-23T10:02:38.302Z,11.90
2019-03-23T10:05:07.947Z,11.89
2019-03-23T10:07:37.174Z,11.98
2019-03-23T10:10:07.495Z,11.98
2019-03-23T10:12:36.715Z,11.94
2019-03-23T10:15:07.327Z,12.07
2019-03-23T10:17:36.602Z,12.02
2019-03-23T10:20:06.744Z,11.99
2019-03-23T10:22:35.981Z,11.66
2019-03-23T10:25:08.314Z,11.68
2019-03-23T10:27:37.488Z,11.74
2019-03-23T10:30:08.142Z,11.74
2019-03-23T10:32:37.317Z,11.73
2019-03-23T10:35:08.049Z,11.91
2019-03-23T10:37:37.422Z,12.02
2019-03-23T10:40:08.463Z,11.98
2019-03-23T10:42:37.640Z,11.96
2019-03-23T10:45:11.544Z,11.96
2019-03-23T10:47:40.857Z,11.88
2019-03-23T10:50:10.246Z,11.74
2019-03-23T10:52:39.444Z,11.59
2019-03-23T10:55:08.876Z,11.77
2019-03-23T10:57:38.112Z,11.73
2019-03-23T11:00:10.151Z,11.68
2019-03-23T11:02:39.355Z,11.73
2019-03-23T11:05:08.780Z,11.84
2019-03-23T11:07:38.106Z,11.82
2019-03-23T11:10:12.335Z,11.79
2019-03-23T11:12:41.629Z,11.82
2019-03-23T11:15:11.444Z,11.81
2019-03-23T11:17:40.648Z,11.77
2019-03-23T11:20:12.385Z,11.67
2019-03-23T11:22:41.602Z,11.76
2019-03-23T11:25:11.840Z,11.77
2019-03-23T11:27:41.028Z,11.71
2019-03-23T11:30:13.124Z,11.77
2019-03-23T11:32:42.324Z,11.77
2019-03-23T11:35:11.727Z,11.63
2019-03-23T11:37:41.160Z,11.63
2019-03-23T11:40:11.751Z,11.69
2019-03-23T11:42:49.191Z,11.63
2019-03-23T11:45:12.661Z,11.61
2019-03-23T11:47:41.888Z,11.53
2019-03-23T11:50:12.120Z,11.52
2019-03-23T11:52:41.370Z,11.52
2019-03-23T11:55:10.808Z,11.43
2019-03-23T11:57:40.016Z,11.45
2019-03-23T12:00:12.477Z,11.39
2019-03-23T12:02:41.736Z,11.28
2019-03-23T12:05:11.369Z,11.21
2019-03-23T12:07:40.569Z,10.95
2019-03-23T12:10:13.832Z,10.95
2019-03-23T12:12:43.023Z,11.11
2019-03-23T12:15:13.860Z,11.19
2019-03-23T12:17:43.054Z,11.36
2019-03-23T12:20:13.269Z,11.36
2019-03-23T12:22:42.495Z,11.35
2019-03-23T12:25:11.971Z,11.22
2019-03-23T12:27:41.167Z,11.21
2019-03-23T12:30:13.377Z,11.18
2019-03-23T12:32:42.554Z,11.13
2019-03-23T12:35:12.681Z,11.14
2019-03-23T12:37:41.949Z,11.24
2019-03-23T12:40:11.610Z,11.28
2019-03-23T12:42:40.767Z,11.39
2019-03-23T12:45:11.105Z,11.38
2019-03-23T12:47:40.366Z,11.45
2019-03-23T12:50:11.218Z,11.42
2019-03-23T12:52:40.415Z,11.61
2019-03-23T12:55:09.848Z,11.72
2019-03-23T12:57:39.039Z,11.77
2019-03-23T13:00:11.616Z,11.75
2019-03-23T13:02:40.900Z,11.56
2019-03-23T13:05:10.342Z,11.68
2019-03-23T13:07:39.526Z,11.75
2019-03-23T13:10:11.781Z,11.88
2019-03-23T13:12:41.106Z,11.96
2019-03-23T13:15:12.824Z,11.85
2019-03-23T13:17:42.109Z,11.98
2019-03-23T13:20:12.207Z,11.97
2019-03-23T13:22:41.400Z,12.11
2019-03-23T13:25:10.952Z,12.22
2019-03-23T13:27:42.155Z,12.24
2019-03-23T13:30:17.632Z,12.42
2019-03-23T13:32:46.970Z,12.36
2019-03-23T13:35:16.168Z,12.46
2019-03-23T13:37:45.349Z,12.45
2019-03-23T13:40:14.566Z,12.31
2019-03-23T13:42:43.765Z,12.31
2019-03-23T13:45:13.601Z,12.35
2019-03-23T13:47:42.795Z,12.48
2019-03-23T13:50:12.405Z,12.50
2019-03-23T13:52:41.600Z,12.46
2019-03-23T13:55:13.826Z,12.43
2019-03-23T13:57:43.029Z,12.50
2019-03-23T14:00:12.657Z,12.45
2019-03-23T14:02:41.855Z,12.34
2019-03-23T14:05:16.137Z,12.34
2019-03-23T14:07:41.991Z,12.37
2019-03-23T14:10:11.266Z,12.33
2019-03-23T14:12:40.519Z,12.37
2019-03-23T14:15:10.044Z,12.45
2019-03-23T14:17:39.234Z,12.43
2019-03-23T14:20:08.568Z,12.53
2019-03-23T14:22:37.774Z,12.42
2019-03-23T14:25:07.412Z,12.23
2019-03-23T14:27:36.573Z,12.21
2019-03-23T14:30:07.867Z,12.22
2019-03-23T14:32:37.140Z,12.21
2019-03-23T14:35:07.185Z,12.17
2019-03-23T14:37:36.446Z,12.05
2019-03-23T14:40:06.849Z,12.13
2019-03-23T14:42:36.368Z,12.11
2019-03-23T14:45:07.297Z,12.04
2019-03-23T14:47:36.444Z,11.92
2019-03-23T14:50:07.392Z,11.90
2019-03-23T14:52:36.535Z,11.97
2019-03-23T14:55:07.281Z,11.76
2019-03-23T14:57:36.455Z,11.76
2019-03-23T15:00:09.623Z,11.83
2019-03-23T15:02:38.804Z,12.01
2019-03-23T15:05:09.134Z,11.98
2019-03-23T15:07:38.309Z,12.04
2019-03-23T15:10:09.542Z,12.04
2019-03-23T15:12:38.772Z,12.04
2019-03-23T15:15:08.982Z,12.10
2019-03-23T15:17:48.250Z,12.12
2019-03-23T15:20:09.378Z,12.07
2019-03-23T15:22:38.566Z,11.87
2019-03-23T15:25:08.181Z,11.94
2019-03-23T15:27:37.385Z,11.88
2019-03-23T15:30:08.299Z,12.04
2019-03-23T15:32:37.541Z,12.07
2019-03-23T15:35:07.563Z,11.97
2019-03-23T15:37:36.753Z,11.86
2019-03-23T15:40:07.538Z,11.84
2019-03-23T15:42:36.849Z,12.01
2019-03-23T15:45:08.151Z,11.95
2019-03-23T15:47:37.339Z,11.85
2019-03-23T15:50:07.409Z,11.74
2019-03-23T15:52:36.627Z,11.76
2019-03-23T15:55:06.265Z,11.85
2019-03-23T15:57:35.882Z,11.72
2019-03-23T16:00:09.983Z,11.61
2019-03-23T16:02:39.233Z,11.47
2019-03-23T16:05:09.093Z,11.44
2019-03-23T16:07:38.313Z,11.38
2019-03-23T16:10:08.515Z,11.42
2019-03-23T16:12:37.966Z,11.60
2019-03-23T16:15:13.825Z,11.63
2019-03-23T16:17:43.015Z,11.70
2019-03-23T16:20:13.063Z,11.72
2019-03-23T16:22:42.237Z,11.67
2019-03-23T16:25:11.867Z,11.36
2019-03-23T16:27:41.046Z,11.39
2019-03-23T16:30:11.890Z,11.39
2019-03-23T16:32:41.240Z,11.44
2019-03-23T16:35:11.163Z,11.36
2019-03-23T16:37:40.370Z,11.19
2019-03-23T16:40:10.098Z,11.07
2019-03-23T16:42:45.292Z,11.07
2019-03-23T16:45:10.913Z,11.10
2019-03-23T16:47:40.137Z,11.07
2019-03-23T16:50:10.156Z,11.04
2019-03-23T16:52:39.411Z,11.03
2019-03-23T16:55:10.528Z,11.14
2019-03-23T16:57:39.716Z,10.79
2019-03-23T17:00:14.602Z,10.79
2019-03-23T17:02:43.786Z,10.77
2019-03-23T17:05:14.714Z,10.79
2019-03-23T17:07:43.933Z,10.69
2019-03-23T17:10:13.192Z,10.60
2019-03-23T17:12:42.382Z,10.60
2019-03-23T17:15:11.957Z,10.69
2019-03-23T17:17:41.247Z,10.69
2019-03-23T17:20:10.762Z,10.73
2019-03-23T17:22:40.051Z,10.73
2019-03-23T17:25:09.987Z,10.63
2019-03-23T17:27:39.224Z,10.60
2019-03-23T17:30:09.146Z,10.46
2019-03-23T17:32:39.099Z,10.46
2019-03-23T17:35:08.755Z,10.49
2019-03-23T17:37:37.955Z,10.48
2019-03-23T17:40:08.265Z,10.28
2019-03-23T17:42:37.527Z,10.29
2019-03-23T17:45:10.084Z,10.16
2019-03-23T17:47:39.321Z,10.22
2019-03-23T17:50:10.116Z,10.22
2019-03-23T17:52:39.320Z,10.17
2019-03-23T17:55:08.725Z,10.23
2019-03-23T17:57:37.922Z,10.09
2019-03-23T18:00:09.330Z,10.10
2019-03-23T18:02:38.599Z,10.09
2019-03-23T18:05:08.711Z,10.09
2019-03-23T18:07:37.955Z,10.07
2019-03-23T18:10:07.970Z,10.09
2019-03-23T18:12:37.364Z,10.10
2019-03-23T18:15:08.423Z,10.10
2019-03-23T18:17:37.635Z,10.08
2019-03-23T18:20:07.450Z,10.08
2019-03-23T18:22:36.754Z,9.76
2019-03-23T18:25:07.187Z,9.65
2019-03-23T18:27:36.456Z,9.69
2019-03-23T18:30:08.976Z,9.71
2019-03-23T18:32:38.156Z,9.73
2019-03-23T18:35:07.743Z,9.67
2019-03-23T18:37:36.912Z,9.61
2019-03-23T18:40:08.278Z,9.65
2019-03-23T18:42:37.813Z,9.65
2019-03-23T18:45:07.137Z,9.67
2019-03-23T18:47:36.404Z,9.58
2019-03-23T18:50:07.735Z,9.57
2019-03-23T18:52:36.907Z,9.57
2019-03-23T18:55:07.657Z,9.55
2019-03-23T18:57:36.921Z,9.49
2019-03-23T19:00:07.817Z,9.41
2019-03-23T19:02:37.015Z,9.36
2019-03-23T19:05:06.512Z,9.37
2019-03-23T19:07:35.777Z,9.40
2019-03-23T19:10:06.648Z,9.51
2019-03-23T19:12:35.816Z,9.50
2019-03-23T19:15:06.846Z,9.51
2019-03-23T19:17:36.029Z,9.53
2019-03-23T19:20:07.000Z,9.39
2019-03-23T19:22:36.181Z,9.32
2019-03-23T19:25:15.894Z,9.29
2019-03-23T19:27:37.709Z,9.29
2019-03-23T19:30:07.933Z,9.28
2019-03-23T19:32:37.137Z,9.28
2019-03-23T19:35:07.160Z,9.26
2019-03-23T19:37:38.719Z,9.24
2019-03-23T19:40:07.801Z,9.21
2019-03-23T19:42:36.968Z,9.21
2019-03-23T19:45:09.627Z,9.18
2019-03-23T19:47:38.796Z,9.20
2019-03-23T19:50:09.250Z,9.17
2019-03-23T19:52:38.433Z,9.13
2019-03-23T19:55:08.257Z,9.23
2019-03-23T19:57:37.432Z,9.18
2019-03-23T20:00:08.572Z,9.18
2019-03-23T20:02:37.768Z,9.07
2019-03-23T20:05:07.295Z,8.98
2019-03-23T20:07:36.481Z,8.98
2019-03-23T20:10:08.139Z,8.89
2019-03-23T20:12:37.463Z,8.89
2019-03-23T20:15:08.765Z,8.85
2019-03-23T20:17:38.116Z,8.82
2019-03-23T20:20:09.334Z,8.80
2019-03-23T20:22:38.591Z,8.79
2019-03-23T20:25:08.224Z,8.79
2019-03-23T20:27:37.498Z,8.72
2019-03-23T20:30:10.026Z,8.68
2019-03-23T20:32:39.281Z,8.62
2019-03-23T20:35:09.093Z,8.54
2019-03-23T20:37:38.270Z,8.49
2019-03-23T20:40:09.585Z,8.35
2019-03-23T20:42:38.682Z,8.27
2019-03-23T20:45:09.628Z,8.35
2019-03-23T20:47:40.642Z,8.39
2019-03-23T20:50:10.836Z,8.35
2019-03-23T20:52:41.550Z,8.35
2019-03-23T20:55:28.614Z,8.30
2019-03-23T20:57:57.871Z,8.26
2019-03-23T21:00:27.196Z,8.23
2019-03-23T21:02:56.435Z,8.26
2019-03-23T21:05:33.939Z,8.16
2019-03-23T21:07:56.501Z,8.11
2019-03-23T21:10:25.734Z,8.23
2019-03-23T21:12:54.984Z,8.25
2019-03-23T21:15:24.151Z,8.23
2019-03-23T21:17:53.329Z,8.22
2019-03-23T21:20:22.502Z,8.19
2019-03-23T21:22:51.719Z,8.02
2019-03-23T21:25:20.913Z,7.99
2019-03-23T21:27:50.090Z,7.97
2019-03-23T21:30:21.624Z,7.77
2019-03-23T21:32:50.884Z,7.77
2019-03-23T21:35:20.084Z,7.68
2019-03-23T21:37:49.263Z,7.75
2019-03-23T21:40:18.439Z,7.77
2019-03-23T21:42:47.623Z,7.80
2019-03-23T21:45:16.947Z,7.83
2019-03-23T21:47:46.145Z,7.81
2019-03-23T21:50:15.655Z,7.75
2019-03-23T21:52:44.911Z,7.60
2019-03-23T21:55:14.759Z,7.67
2019-03-23T21:57:43.985Z,7.69
2019-03-23T22:00:14.741Z,7.53
2019-03-23T22:02:43.961Z,7.57
2019-03-23T22:05:13.303Z,7.44
2019-03-23T22:07:42.494Z,7.37
2019-03-23T22:10:11.948Z,7.32
2019-03-23T22:12:41.205Z,7.38
2019-03-23T22:15:10.524Z,7.37
2019-03-23T22:17:39.701Z,7.43
2019-03-23T22:20:09.144Z,7.49
2019-03-23T22:22:38.334Z,7.53
2019-03-23T22:25:08.077Z,7.53
2019-03-23T22:27:38.136Z,7.59
2019-03-23T22:30:12.568Z,7.59
2019-03-23T22:32:42.189Z,7.50
2019-03-23T22:35:11.625Z,7.50
2019-03-23T22:37:40.919Z,7.60
2019-03-23T22:40:12.242Z,7.56
2019-03-23T22:42:41.500Z,7.54
2019-03-23T22:45:10.974Z,7.41
2019-03-23T22:47:40.246Z,7.44
2019-03-23T22:50:10.254Z,7.46
2019-03-23T22:52:39.585Z,7.41
2019-03-23T22:55:09.981Z,7.41
2019-03-23T22:57:39.305Z,7.40
2019-03-23T23:00:15.878Z,7.33
2019-03-23T23:02:45.167Z,7.39
2019-03-23T23:05:14.544Z,7.39
2019-03-23T23:07:45.175Z,7.32
2019-03-23T23:10:14.985Z,7.23
2019-03-23T23:12:44.237Z,7.30
2019-03-23T23:15:14.092Z,7.26
2019-03-23T23:17:43.324Z,7.23
2019-03-23T23:20:12.554Z,7.21
2019-03-23T23:22:42.023Z,7.20
2019-03-23T23:25:11.524Z,7.20
2019-03-23T23:27:40.721Z,7.17
2019-03-23T23:30:11.807Z,7.12
2019-03-23T23:32:41.091Z,7.09
2019-03-23T23:35:11.419Z,7.04
2019-03-23T23:37:40.769Z,7.07
2019-03-23T23:40:10.377Z,7.08
2019-03-23T23:42:39.581Z,7.07
2019-03-23T23:45:15.469Z,6.99
2019-03-23T23:47:40.069Z,6.99
2019-03-23T23:50:10.124Z,6.84
2019-03-23T23:52:39.254Z,6.68
2019-03-23T23:55:08.674Z,6.54
2019-03-23T23:57:38.093Z,6.48
